• Join FlightAware (Why Join?)
  • Login
  • US Flag 
11:43PM EST


 

Airport Tracker/Info


-or-


 

Live Flight TrackerFlight Track Log ✈ N70AG ✈ 13-May-2013 ✈ KSAN - KHIO

Flight Track Log - Related Links

Times and Time Zones

All times are in EDT time to prevent confusion due to time zone crossing. See the N70AG flight status page for this flight to view local times or setup timezone preferences in your user account.

Time Position Orientation Groundspeed Altitude Reporting Facility
EDT Latitude Longitude Course Direction KTS MPH feet Rate Location/Type
10:11AM 32.7428 -117.2197 302° West 228 262 1,100  Level Los Angeles Center
10:12AM 32.7736 -117.2781 302° West 208 239 3,900 3,120 Climbing Los Angeles Center
10:13AM 32.8258 -117.3531 310° West 262 302 7,600 3,300 Climbing Los Angeles Center
10:14AM 32.8806 -117.4267 312° West 289 333 10,700 2,580 Climbing Los Angeles Center
10:15AM 32.9467 -117.5192 310° West 360 414 13,000 2,700 Climbing Los Angeles Center
10:16AM 33.0200 -117.6153 312° West 385 443 16,300 2,880 Climbing Los Angeles Center
10:17AM 33.0936 -117.7167 311° West 400 460 19,000 2,820 Climbing Los Angeles Center
10:18AM 33.1836 -117.8458 310° West 422 486 22,100 2,340 Climbing Los Angeles Center
10:19AM 33.2303 -117.9831 292° West 443 510 24,400 2,220 Climbing Los Angeles Center
10:20AM 33.2869 -118.1539 292° West 457 526 27,200 2,760 Climbing Los Angeles Center
10:21AM 33.3639 -118.2717 308° West 449 517 30,100 2,820 Climbing Los Angeles Center
10:22AM 33.4792 -118.3189 341° North 436 502 33,000 1,860 Climbing Los Angeles Center
10:23AM 33.5969 -118.3475 349° North 431 496 34,000 480 Climbing Los Angeles Center
10:24AM 33.7283 -118.3811 348° North 431 496 34,000  Level Los Angeles Center
10:26AM 33.8525 -118.4131 348° North 448 516 34,000  Level Los Angeles Center
10:27AM 33.9981 -118.4550 347° North 460 529 34,000  Level Los Angeles Center
10:28AM 34.1194 -118.5011 343° North 457 526 34,000 360 Level Los Angeles Center
10:29AM 34.2697 -118.5561 343° North 466 536 34,800 1,200 Climbing Los Angeles Center
10:30AM 34.3928 -118.6006 343° North 466 536 36,800 1,380 Climbing Los Angeles Center
10:31AM 34.5411 -118.6547 343° North 463 533 38,000 540 Climbing Los Angeles Center
10:32AM 34.6686 -118.7028 343° North 474 545 38,000  Level Los Angeles Center
10:33AM 34.7983 -118.7533 342° North 488 562 38,000  Level Los Angeles Center
10:34AM 34.9275 -118.8003 343° North 484 557 38,000  Level Los Angeles Center
10:35AM 35.0572 -118.8492 343° North 486 559 38,000  Level Los Angeles Center
10:36AM 35.2408 -118.9172 343° North 494 568 38,000  Level Los Angeles Center
10:37AM 35.3706 -118.9661 343° North 491 565 38,000  Level Los Angeles Center
10:38AM 35.4992 -119.0144 343° North 486 559 38,000  Level Los Angeles Center
10:39AM 35.6289 -119.0644 343° North 489 563 38,000  Level Los Angeles Center
10:40AM 35.7589 -119.1144 343° North 491 565 38,000  Level Los Angeles Center
10:41AM 35.8881 -119.1644 343° North 490 564 38,000  Level Los Angeles Center
10:42AM 36.0189 -119.2147 343° North 493 567 38,000  Level Los Angeles Center
10:43AM 36.1744 -119.2750 343° North 492 566 38,000  Level Los Angeles Center
10:45AM 36.3053 -119.3258 343° North 494 568 38,000  Level Los Angeles Center
10:46AM 36.4361 -119.3781 342° North 496 571 38,000  Level Los Angeles Center
10:47AM 36.5675 -119.4292 343° North 497 572 38,000  Level Los Angeles Center
10:48AM 36.7261 -119.4878 344° North 501 577 38,000  Level Oakland Center
10:49AM 36.8594 -119.5411 342° North 509 586 38,000  Level Oakland Center
10:50AM 36.9906 -119.5953 342° North 498 573 38,000  Level Oakland Center
10:51AM 37.1219 -119.6478 342° North 494 568 38,000  Level Oakland Center
10:52AM 37.2828 -119.7131 342° North 505 581 38,000  Level Oakland Center
10:53AM 37.4033 -119.7592 343° North 509 586 38,000  Level Oakland Center
10:54AM 37.5364 -119.8136 342° North 503 579 38,000  Level Oakland Center
10:55AM 37.6689 -119.8642 343° North 493 567 38,000  Level Oakland Center
10:56AM 37.8014 -119.9189 342° North 499 574 38,000  Level Oakland Center
10:57AM 37.9633 -119.9819 343° North 507 583 38,000  Level Oakland Center
10:58AM 38.0964 -120.0364 342° North 505 581 38,000  Level Oakland Center
10:59AM 38.2294 -120.0922 342° North 504 580 38,000  Level Oakland Center
11:00AM 38.3642 -120.1478 342° North 509 586 38,000  Level Oakland Center
11:01AM 38.4978 -120.2028 342° North 508 585 38,000  Level Oakland Center
11:02AM 38.6328 -120.2586 342° North 511 588 38,000  Level Oakland Center
11:03AM 38.7675 -120.3139 342° North 512 589 38,000  Level Oakland Center
11:04AM 38.9019 -120.3692 342° North 509 586 38,000  Level Oakland Center
11:05AM 39.0364 -120.4253 342° North 509 586 38,000  Level Oakland Center
11:06AM 39.1989 -120.4936 342° North 512 589 38,000  Level Oakland Center
11:07AM 39.3336 -120.5511 342° North 510 587 38,000  Level Oakland Center
11:08AM 39.4692 -120.6081 342° North 512 589 38,000  Level Oakland Center
11:09AM 39.6064 -120.6664 342° North 517 595 38,000  Level Oakland Center
11:10AM 39.7425 -120.7250 342° North 518 596 38,000  Level Oakland Center
11:11AM 39.8811 -120.7847 342° North 523 602 38,000  Level Oakland Center
11:12AM 40.0356 -120.8508 342° North 519 597 38,000  Level Oakland Center
11:13AM 40.1736 -120.9103 342° North 523 602 38,000  Level Oakland Center
11:14AM 40.3122 -120.9706 342° North 531 611 38,000  Level Oakland Center
11:15AM 40.4522 -121.0314 342° North 534 615 38,000  Level Oakland Center
11:16AM 40.5833 -121.0903 341° North 526 605 38,000 -240 Level Oakland Center
11:17AM 40.6392 -121.1133 343° North 524 603 37,700 -960 Descending Seattle Center
11:18AM 40.7767 -121.1750 341° North 521 600 36,700 -840 Descending Seattle Center
11:19AM 40.9217 -121.2406 341° North 533 613 36,000 -360 Descending Seattle Center
11:20AM 41.0583 -121.3019 341° North 533 613 36,000  Level Seattle Center
11:21AM 41.1992 -121.3656 341° North 535 616 36,000  Level Seattle Center
11:21AM 41.3078 -121.4186 340° North 532 612 36,000  Level Oakland Center
11:22AM 41.4492 -121.4756 343° North 530 610 36,000  Level Oakland Center
11:23AM 41.5033 -121.5019 340° North 524 603 36,000  Level Seattle Center
11:24AM 41.6428 -121.5658 341° North 527 606 36,000  Level Seattle Center
11:25AM 41.7828 -121.6289 341° North 532 612 36,000  Level Seattle Center
11:26AM 41.9206 -121.6919 341° North 528 608 36,000  Level Seattle Center
11:27AM 42.0564 -121.7528 342° North 526 605 36,000  Level Seattle Center
11:28AM 42.1911 -121.8158 341° North 525 604 36,000  Level Seattle Center
11:29AM 42.3278 -121.8781 341° North 527 606 36,000  Level Seattle Center
11:30AM 42.4653 -121.9419 341° North 528 608 36,000  Level Seattle Center
11:31AM 42.6042 -122.0067 341° North 529 609 36,000  Level Seattle Center
11:32AM 42.7717 -122.0867 341° North 533 613 36,000  Level Seattle Center
11:33AM 42.9119 -122.1508 341° North 531 611 36,000  Level Seattle Center
11:34AM 43.0408 -122.2133 340° North 528 608 36,000  Level Seattle Center
11:35AM 43.2006 -122.2875 341° North 536 617 36,000  Level Seattle Center
11:36AM 43.3394 -122.3547 341° North 528 608 36,000  Level Seattle Center
11:37AM 43.4789 -122.4219 341° North 533 613 36,000  Level Seattle Center
11:38AM 43.6178 -122.4892 341° North 530 610 36,000 -420 Level Seattle Center
11:39AM 43.7569 -122.5558 341° North 531 611 35,200 -1,500 Descending Seattle Center
11:40AM 43.8886 -122.6236 340° North 513 590 33,000 -2,460 Descending Seattle Center
11:41AM 44.0214 -122.6894 340° North 511 588 30,300 -2,760 Descending Seattle Center
11:42AM 44.1606 -122.7394 346° North 518 596 27,500 -2,760 Descending Seattle Center
11:43AM 44.3033 -122.7381 360° North 517 595 24,700 -2,880 Descending Seattle Center
11:44AM 44.4519 -122.7222 North 501 577 21,700 -2,760 Descending Seattle Center
11:45AM 44.5814 -122.7097 North 478 550 19,200 -2,520 Descending Seattle Center
11:46AM 44.6978 -122.6972 North 457 526 17,000 -2,400 Descending Seattle Center
11:47AM 44.8258 -122.6858 North 436 502 14,400 -2,220 Descending Seattle Center
11:48AM 44.9367 -122.6750 North 412 474 12,200 -2,040 Descending Seattle Center
11:49AM 45.0267 -122.6647 North 337 388 10,300 -1,500 Descending Seattle Center
11:50AM 45.0950 -122.6594 North 279 321 9,600 -1,020 Descending Seattle Center
11:50AM 45.1058 -122.6578 North 297 342 9,300 -2,400 Descending Seattle Center
11:51AM 45.1739 -122.6519 North 270 311 7,200 -2,280 Descending Seattle Center
11:51AM 45.1803 -122.6497 14° North 275 316 7,000 -1,200 Descending Seattle Center
11:52AM 45.2414 -122.6431 North 221 254 6,000 -1,140 Descending Seattle Center
11:52AM 45.2578 -122.6431 360° North 240 276 5,900 -600 Descending Seattle Center
11:53AM 45.2864 -122.6403 North 180 207 5,500 -900 Descending Seattle Center
11:53AM 45.3072 -122.6375 North 191 220 5,000 -1,200 Descending Seattle Center
11:54AM 45.3336 -122.6392 357° North 189 217 4,400 -1,140 Descending Seattle Center
11:54AM 45.3447 -122.6656 301° West 182 209 3,900 -360 Descending Seattle Center
11:55AM 45.3567 -122.7100 291° West 155 178 4,000  Climbing Seattle Center
11:55AM 45.3603 -122.7239 290° West 161 185 3,900 60 Descending Seattle Center
11:56AM 45.3733 -122.7708 292° West 167 192 4,100  Climbing Seattle Center
11:56AM 45.3794 -122.7836 304° West 165 190 3,900 -720 Descending Seattle Center
11:57AM 45.4100 -122.8142 325° Northwest 181 208 3,400 -900 Descending Seattle Center
11:57AM 45.4200 -122.8236 326° Northwest 177 204 3,000 -1,020 Descending Seattle Center
11:58AM 45.4369 -122.8403 325° Northwest 178 205 2,700 -1,020 Descending Seattle Center
11:58AM 45.4581 -122.8644 321° Northwest 176 203 2,000 -960 Descending Seattle Center
11:59AM 45.4808 -122.8872 325° Northwest 201 231 1,600 -840 Descending Seattle Center
11:59AM 45.4961 -122.9028 324° Northwest 172 198 1,200 -900 Descending Seattle Center
12:00PM 45.5136 -122.9203 325° Northwest 165 190 800 -840 Descending Seattle Center
12:00PM 45.5256 -122.9361 317° Northwest 157 181 400 -300 Descending Seattle Center
12:01PM 45.5306 -122.9411 325° Northwest 151 174 500 -300 Climbing Seattle Center
12:01PM 45.5581 -122.9706 323° Northwest 149 171 100 -780 Descending Seattle Center